Time;durP1;ratioP1;P1;durP2;ratioP2;P2;SDS_P1;SDS_P2;PMS_P1;PMS_P2;Temp;Humidity;BMP_temperature;BMP_pressure;BME280_temperature;BME280_humidity;BME280_pressure;Samples;Min_cycle;Max_cycle;Signal;HPM_P1;HPM_P2
2022/07/08 00:02:09;;;;;;;15.63;2.20;;;;;;;13.38;80.50;101926.09;5987904;28;20047;-62
2022/07/08 00:05:05;;;;;;;6.67;1.90;;;;;;;13.48;81.00;101931.50;6004762;28;20031;-63
2022/07/08 00:08:01;;;;;;;12.20;3.45;;;;;;;13.46;80.84;101938.75;5996734;28;20540;-64
2022/07/08 00:10:57;;;;;;;10.98;2.50;;;;;;;13.46;80.62;101939.59;6002986;28;20030;-64
2022/07/08 00:13:52;;;;;;;11.68;2.15;;;;;;;13.56;80.40;101945.81;6004330;28;20038;-63
2022/07/08 00:16:47;;;;;;;8.80;1.83;;;;;;;13.49;80.35;101941.16;5994652;28;20034;-62
2022/07/08 00:19:42;;;;;;;10.27;2.33;;;;;;;13.54;80.55;101936.25;6003647;28;20471;-62
2022/07/08 00:22:38;;;;;;;10.93;2.30;;;;;;;13.54;80.21;101939.78;5999475;28;20038;-64
2022/07/08 00:25:33;;;;;;;10.53;2.17;;;;;;;13.58;80.22;101943.03;5994395;28;20046;-63
2022/07/08 00:28:28;;;;;;;6.20;1.60;;;;;;;13.55;79.93;101943.28;5999806;28;20027;-62
2022/07/08 00:31:24;;;;;;;14.23;2.57;;;;;;;13.56;79.76;101945.00;6000024;28;20275;-64
2022/07/08 00:34:19;;;;;;;8.95;1.75;;;;;;;13.67;80.46;101958.19;6004198;28;20046;-63
2022/07/08 00:37:15;;;;;;;10.70;1.90;;;;;;;13.68;80.25;101959.88;5994403;28;20108;-64
2022/07/08 00:40:11;;;;;;;9.53;2.07;;;;;;;13.67;80.13;101959.03;6001222;28;20532;-64
2022/07/08 00:43:07;;;;;;;5.22;1.55;;;;;;;13.66;79.95;101975.19;6000178;28;20046;-63
2022/07/08 00:46:02;;;;;;;10.50;1.43;;;;;;;13.62;79.74;101965.75;5999258;28;20035;-64
2022/07/08 00:48:57;;;;;;;16.33;3.73;;;;;;;13.68;79.93;101987.38;6001137;28;20432;-62
2022/07/08 00:51:54;;;;;;;12.20;2.17;;;;;;;13.62;80.05;101965.75;6000853;28;20291;-62
2022/07/08 00:54:49;;;;;;;9.57;2.22;;;;;;;13.63;79.56;101972.78;6002285;28;20030;-64
2022/07/08 00:57:45;;;;;;;7.03;1.50;;;;;;;13.67;79.09;101982.16;5997499;28;20090;-63
2022/07/08 01:00:40;;;;;;;8.60;1.77;;;;;;;13.65;78.94;101982.31;5999594;28;20114;-63
2022/07/08 01:03:36;;;;;;;9.48;1.98;;;;;;;13.59;79.11;101976.66;6000948;28;20769;-64
2022/07/08 01:06:31;;;;;;;10.80;2.07;;;;;;;13.61;78.95;101985.41;6001111;28;20026;-62
2022/07/08 01:09:27;;;;;;;9.20;2.05;;;;;;;13.61;79.45;101983.59;5999980;28;20499;-63
2022/07/08 01:12:22;;;;;;;8.68;2.78;;;;;;;13.59;79.46;101993.50;5994461;28;20085;-62
2022/07/08 01:15:20;;;;;;;13.80;1.97;;;;;;;13.60;78.85;101989.03;6000722;28;20041;-62
2022/07/08 01:18:26;;;;;;;9.85;2.00;;;;;;;13.54;79.22;101992.22;6000062;28;20034;-63
2022/07/08 01:21:21;;;;;;;11.80;2.28;;;;;;;13.52;79.26;101992.38;6002448;28;20513;-63
2022/07/08 01:24:18;;;;;;;10.20;1.83;;;;;;;13.53;79.40;101999.38;6002030;28;20031;-62
2022/07/08 01:27:13;;;;;;;12.52;1.80;;;;;;;13.54;79.46;102010.88;5996128;28;20073;-64
2022/07/08 01:30:09;;;;;;;10.83;2.97;;;;;;;13.44;79.90;102004.66;5996276;28;20042;-63
2022/07/08 01:33:04;;;;;;;8.57;1.67;;;;;;;13.44;79.84;102008.19;5991417;28;20042;-63
2022/07/08 01:35:59;;;;;;;7.63;1.87;;;;;;;13.40;79.64;102008.59;5992885;28;20034;-62
2022/07/08 01:38:54;;;;;;;7.17;2.23;;;;;;;13.44;79.70;102010.84;6000253;28;20312;-62
2022/07/08 01:41:50;;;;;;;11.07;2.87;;;;;;;13.42;80.07;102011.97;5993183;28;20049;-64
2022/07/08 01:44:45;;;;;;;10.90;1.63;;;;;;;13.42;79.95;102006.63;6000994;28;20309;-63
2022/07/08 01:47:41;;;;;;;7.67;1.83;;;;;;;13.36;80.19;102001.81;5995582;28;20495;-64
2022/07/08 01:50:36;;;;;;;11.13;2.38;;;;;;;13.35;80.07;102005.47;5996254;28;20094;-64
2022/07/08 01:53:31;;;;;;;14.87;2.53;;;;;;;13.34;79.94;102001.97;5994868;28;20034;-64
2022/07/08 01:56:26;;;;;;;12.80;1.80;;;;;;;13.36;80.81;102008.00;6002178;28;20019;-64
2022/07/08 01:59:22;;;;;;;9.00;2.50;;;;;;;13.29;80.54;101998.00;5997768;28;20345;-64
2022/07/08 02:02:19;;;;;;;9.83;1.63;;;;;;;13.32;80.41;102003.06;5988539;28;20042;-64
2022/07/08 02:05:15;;;;;;;13.02;1.65;;;;;;;13.32;80.66;102009.22;5989998;28;20117;-63
2022/07/08 02:08:10;;;;;;;13.60;3.33;;;;;;;13.29;80.61;101990.03;5986954;28;20035;-62
2022/07/08 02:14:19;;;;;;;6.93;1.83;;;;;;;13.34;80.68;102009.13;5992047;28;20278;-64
2022/07/08 02:17:16;;;;;;;15.10;1.57;;;;;;;13.23;81.13;101993.22;5996707;28;20038;-62
2022/07/08 02:20:12;;;;;;;8.55;1.83;;;;;;;13.24;80.18;101997.53;5991205;28;20046;-64
2022/07/08 02:23:07;;;;;;;13.88;2.00;;;;;;;13.28;80.02;102006.97;5996647;28;20023;-64
2022/07/08 02:26:03;;;;;;;13.13;1.97;;;;;;;13.22;79.95;102002.16;5992568;28;20023;-63
2022/07/08 02:28:58;;;;;;;9.02;2.10;;;;;;;13.23;79.66;102002.06;5998461;28;20034;-62
2022/07/08 02:31:53;;;;;;;7.73;1.87;;;;;;;13.27;79.75;102007.94;5991466;28;20481;-62
2022/07/08 02:34:49;;;;;;;15.27;1.80;;;;;;;13.24;80.24;102009.03;5999527;28;20085;-63
2022/07/08 02:37:44;;;;;;;7.22;1.80;;;;;;;13.28;79.81;102009.63;5999371;28;20093;-63
2022/07/08 02:40:39;;;;;;;10.47;1.73;;;;;;;13.30;79.84;102010.34;6001221;28;20042;-64
2022/07/08 02:43:35;;;;;;;7.53;1.30;;;;;;;13.26;79.71;102023.09;5996744;28;20035;-63
2022/07/08 02:46:30;;;;;;;11.60;1.47;;;;;;;13.23;79.17;102018.03;5992407;28;20031;-64
2022/07/08 02:49:25;;;;;;;5.63;1.63;;;;;;;13.31;79.40;102020.03;5994094;28;20027;-64
2022/07/08 02:52:20;;;;;;;8.40;1.77;;;;;;;13.28;79.77;102030.94;6001743;28;20043;-64
2022/07/08 02:55:16;;;;;;;11.23;1.73;;;;;;;13.26;79.64;102033.75;6003233;28;20033;-63
2022/07/08 02:58:11;;;;;;;11.90;1.87;;;;;;;13.35;79.33;102042.75;6005945;28;20427;-64
2022/07/08 03:01:06;;;;;;;12.38;1.98;;;;;;;13.25;79.08;102025.88;6004063;28;20615;-63
2022/07/08 03:04:02;;;;;;;10.83;1.93;;;;;;;13.26;79.35;102041.75;6004218;28;20038;-63
2022/07/08 03:06:57;;;;;;;7.88;1.50;;;;;;;13.32;79.01;102040.34;6002714;28;20019;-62
2022/07/08 03:09:53;;;;;;;8.63;1.43;;;;;;;13.28;79.76;102038.94;6003818;28;20062;-63
2022/07/08 03:12:48;;;;;;;9.33;1.80;;;;;;;13.22;79.95;102042.97;5994279;28;20344;-64
2022/07/08 03:15:44;;;;;;;12.75;1.88;;;;;;;13.26;80.28;102046.22;6003069;28;20039;-63
2022/07/08 03:18:39;;;;;;;9.05;1.85;;;;;;;13.27;80.27;102046.09;5997835;28;20039;-62
2022/07/08 03:21:34;;;;;;;10.57;1.97;;;;;;;13.22;80.54;102042.13;5999869;28;20501;-63
2022/07/08 03:24:30;;;;;;;10.33;1.70;;;;;;;13.20;80.47;102046.75;6001337;28;20046;-62
2022/07/08 03:27:25;;;;;;;10.37;2.30;;;;;;;13.17;80.80;102041.66;5990691;28;20090;-64
2022/07/08 03:30:20;;;;;;;12.20;2.13;;;;;;;13.17;80.81;102049.66;5991711;28;20043;-64
2022/07/08 03:33:15;;;;;;;12.23;1.80;;;;;;;13.25;81.23;102052.53;5997804;28;20282;-63
2022/07/08 03:36:11;;;;;;;8.90;1.67;;;;;;;13.23;80.93;102054.47;6003344;28;20043;-63
2022/07/08 03:39:06;;;;;;;9.93;1.77;;;;;;;13.20;80.99;102055.59;6003459;28;20034;-63
2022/07/08 03:42:02;;;;;;;5.93;1.20;;;;;;;13.19;81.14;102058.34;6009047;28;20039;-64
2022/07/08 03:44:57;;;;;;;7.25;1.40;;;;;;;13.16;81.24;102071.94;6015487;28;20034;-64
2022/07/08 03:47:53;;;;;;;9.00;1.60;;;;;;;13.13;81.59;102064.22;6003935;28;20034;-62
2022/07/08 03:50:49;;;;;;;11.68;2.92;;;;;;;13.05;81.17;102060.34;6002746;28;20030;-64
2022/07/08 03:53:44;;;;;;;6.30;1.57;;;;;;;13.17;80.85;102071.81;6000062;28;20122;-64
2022/07/08 03:56:39;;;;;;;9.03;2.13;;;;;;;13.22;80.61;102079.41;5992528;28;20762;-62
2022/07/08 03:59:34;;;;;;;7.97;1.53;;;;;;;13.24;80.98;102082.78;6002980;28;20464;-63
2022/07/08 04:02:30;;;;;;;9.50;1.87;;;;;;;13.21;80.86;102088.41;5996297;28;20060;-63
2022/07/08 04:05:25;;;;;;;6.97;1.70;;;;;;;13.19;80.39;102085.84;6002539;28;20046;-64
2022/07/08 04:08:20;;;;;;;10.90;2.20;;;;;;;13.25;80.41;102089.81;5998448;28;20046;-63
2022/07/08 04:11:16;;;;;;;7.67;1.60;;;;;;;13.19;80.83;102085.84;5993103;28;20034;-62
2022/07/08 04:14:11;;;;;;;11.18;1.70;;;;;;;13.28;80.96;102105.53;5994374;28;20278;-65
2022/07/08 04:17:07;;;;;;;6.33;1.43;;;;;;;13.30;80.03;102095.59;5995708;28;20030;-64
2022/07/08 04:20:02;;;;;;;16.20;1.83;;;;;;;13.32;79.39;102097.16;5999775;28;20022;-63
2022/07/08 04:22:58;;;;;;;11.73;2.03;;;;;;;13.31;78.88;102100.81;6000102;28;20037;-64
2022/07/08 04:25:53;;;;;;;9.83;1.30;;;;;;;13.45;78.38;102115.63;6005185;28;20035;-62
2022/07/08 04:28:48;;;;;;;8.13;1.57;;;;;;;13.52;78.55;102119.44;6004236;28;20038;-65
2022/07/08 04:31:43;;;;;;;6.83;1.50;;;;;;;13.48;78.28;102112.72;6003879;28;20043;-63
2022/07/08 04:34:39;;;;;;;8.10;1.50;;;;;;;13.54;78.87;102126.34;5992373;28;20356;-63
2022/07/08 04:37:34;;;;;;;12.43;1.90;;;;;;;13.59;78.27;102126.78;5995900;28;20125;-65
2022/07/08 04:40:29;;;;;;;11.37;2.00;;;;;;;13.66;78.21;102127.13;6003814;28;20043;-64
2022/07/08 04:43:25;;;;;;;11.87;1.50;;;;;;;13.66;77.97;102129.78;6002522;28;20418;-63
2022/07/08 04:46:20;;;;;;;5.83;1.13;;;;;;;13.67;77.77;102134.97;6001218;28;20352;-64
2022/07/08 04:49:16;;;;;;;15.20;1.83;;;;;;;13.67;77.64;102131.47;6002556;28;20031;-64
2022/07/08 04:52:11;;;;;;;10.90;1.67;;;;;;;13.77;77.27;102144.88;5992004;28;20375;-62
2022/07/08 04:55:07;;;;;;;6.55;1.80;;;;;;;13.73;77.53;102128.28;5996170;28;20034;-62
2022/07/08 04:58:04;;;;;;;7.32;2.22;;;;;;;13.75;77.49;102137.00;5995800;28;20509;-65
2022/07/08 05:00:59;;;;;;;8.70;1.70;;;;;;;13.81;77.34;102140.94;6001778;28;20038;-64
2022/07/08 05:03:55;;;;;;;7.10;1.53;;;;;;;13.96;76.94;102144.97;5999635;28;20065;-65
2022/07/08 05:06:50;;;;;;;6.30;1.35;;;;;;;14.00;76.05;102141.03;6002995;28;20107;-64
2022/07/08 05:09:46;;;;;;;6.37;1.50;;;;;;;14.06;76.18;102145.84;5996206;28;20511;-64
2022/07/08 05:12:41;;;;;;;7.17;3.77;;;;;;;14.12;76.24;102154.19;6002072;28;20288;-65
2022/07/08 05:15:36;;;;;;;5.65;1.70;;;;;;;14.20;76.26;102138.34;6003697;28;20471;-63
2022/07/08 05:18:32;;;;;;;5.97;1.30;;;;;;;14.19;75.52;102131.31;5989418;28;20399;-63
2022/07/08 05:21:27;;;;;;;11.90;1.70;;;;;;;14.24;75.41;102147.75;5998593;28;20045;-63
2022/07/08 05:24:22;;;;;;;5.03;1.40;;;;;;;14.29;75.29;102153.53;6002416;28;20038;-64
2022/07/08 05:27:18;;;;;;;7.03;1.73;;;;;;;14.26;75.16;102153.81;6003296;28;20110;-63
2022/07/08 05:30:14;;;;;;;11.03;1.70;;;;;;;14.24;75.12;102138.94;5989498;28;20042;-63
2022/07/08 05:33:10;;;;;;;7.07;1.40;;;;;;;14.35;75.25;102159.38;6003166;28;20038;-63
2022/07/08 05:36:06;;;;;;;6.90;1.40;;;;;;;14.28;74.54;102141.19;5990490;28;20047;-63
2022/07/08 05:39:01;;;;;;;5.45;1.50;;;;;;;14.34;74.09;102142.50;6017411;28;20503;-63
2022/07/08 05:41:57;;;;;;;3.00;1.30;;;;;;;14.43;74.56;102143.53;5998511;28;20045;-64
2022/07/08 05:44:52;;;;;;;4.30;1.23;;;;;;;14.48;74.60;102149.28;6002977;28;20700;-65
2022/07/08 05:47:47;;;;;;;9.30;1.70;;;;;;;14.46;74.04;102148.59;5986150;28;20035;-64
2022/07/08 05:50:42;;;;;;;10.60;1.63;;;;;;;14.57;74.53;102168.00;5994087;28;20034;-64
2022/07/08 05:53:38;;;;;;;9.73;1.30;;;;;;;14.58;73.17;102161.69;5989642;28;20407;-64
2022/07/08 05:56:33;;;;;;;10.83;1.63;;;;;;;14.59;72.26;102157.19;5999231;28;20031;-63
2022/07/08 05:59:29;;;;;;;7.05;1.50;;;;;;;14.68;72.83;102159.03;5998266;28;20051;-63
2022/07/08 06:02:25;;;;;;;6.35;1.40;;;;;;;14.68;73.21;102159.88;6000271;28;20037;-63
2022/07/08 06:05:20;;;;;;;4.70;1.38;;;;;;;14.62;72.14;102159.59;5994036;28;20039;-64
2022/07/08 06:08:16;;;;;;;4.33;1.23;;;;;;;14.81;72.69;102167.66;5999348;28;20466;-64
2022/07/08 06:11:11;;;;;;;7.40;1.57;;;;;;;14.80;71.95;102171.28;6002214;28;20345;-64
2022/07/08 06:14:06;;;;;;;6.00;1.30;;;;;;;14.92;71.76;102172.84;5982464;28;20039;-63
2022/07/08 06:17:02;;;;;;;10.00;1.47;;;;;;;14.90;70.75;102169.47;5992865;28;20134;-64
2022/07/08 06:19:57;;;;;;;6.70;1.73;;;;;;;14.90;70.22;102181.00;5996975;28;20627;-63
2022/07/08 06:22:52;;;;;;;7.25;1.25;;;;;;;14.83;71.09;102177.22;6001250;28;20423;-63
2022/07/08 06:25:48;;;;;;;9.23;1.47;;;;;;;14.86;70.10;102184.97;6002563;28;20039;-63
2022/07/08 06:28:43;;;;;;;7.13;1.63;;;;;;;14.87;70.91;102185.78;6002075;28;20039;-63
2022/07/08 06:31:38;;;;;;;6.97;1.70;;;;;;;15.10;70.09;102189.91;5996777;28;20074;-64
2022/07/08 06:34:34;;;;;;;5.63;1.17;;;;;;;15.28;69.80;102190.03;6001833;28;20109;-62
2022/07/08 06:37:29;;;;;;;7.13;1.57;;;;;;;15.33;69.11;102204.69;6000950;28;20031;-64
2022/07/08 06:40:25;;;;;;;6.13;1.70;;;;;;;15.28;69.64;102209.59;5998615;28;20046;-63
2022/07/08 06:43:20;;;;;;;9.07;1.52;;;;;;;15.21;69.44;102195.13;6001768;28;20117;-64
2022/07/08 06:46:16;;;;;;;7.37;1.63;;;;;;;15.12;70.79;102200.44;6001618;28;20721;-63
2022/07/08 06:49:11;;;;;;;5.38;1.55;;;;;;;15.24;70.93;102197.53;6001634;28;20049;-63
2022/07/08 06:52:06;;;;;;;7.70;1.60;;;;;;;15.40;70.48;102200.47;6001638;28;20489;-64
2022/07/08 06:55:03;;;;;;;7.17;1.30;;;;;;;15.58;69.20;102189.06;6001437;28;20286;-63
2022/07/08 06:57:58;;;;;;;7.85;1.23;;;;;;;15.67;68.52;102194.44;6001274;28;20038;-65
2022/07/08 07:00:53;;;;;;;6.23;1.43;;;;;;;15.63;69.67;102194.84;5999579;28;20467;-64
2022/07/08 07:03:48;;;;;;;6.70;1.53;;;;;;;15.62;69.72;102198.53;6000126;28;20286;-63
2022/07/08 07:06:44;;;;;;;7.47;1.30;;;;;;;15.61;69.76;102186.13;6001643;28;20489;-63
2022/07/08 07:09:39;;;;;;;7.10;1.48;;;;;;;15.72;68.35;102204.69;5998400;28;20270;-63
2022/07/08 07:12:35;;;;;;;4.18;1.10;;;;;;;15.76;68.66;102201.56;5999941;28;20050;-64
2022/07/08 07:15:30;;;;;;;7.43;1.33;;;;;;;16.07;68.61;102215.59;5988895;28;20109;-64
2022/07/08 07:18:25;;;;;;;7.30;1.23;;;;;;;16.17;67.36;102205.72;5998037;28;20027;-64
2022/07/08 07:21:21;;;;;;;8.52;2.42;;;;;;;16.09;66.83;102197.56;5994736;28;20039;-63
2022/07/08 07:24:16;;;;;;;5.93;1.40;;;;;;;16.05;67.02;102205.06;5992316;28;20090;-62
2022/07/08 07:27:11;;;;;;;4.03;1.17;;;;;;;16.66;64.83;102188.47;6001629;28;20078;-65
2022/07/08 07:30:08;;;;;;;5.15;1.45;;;;;;;16.99;62.33;102190.53;5997492;28;20125;-63
2022/07/08 07:33:03;;;;;;;7.15;1.27;;;;;;;16.96;61.83;102209.59;5998794;28;20038;-63
2022/07/08 07:35:59;;;;;;;5.33;1.27;;;;;;;16.66;61.82;102213.44;6002130;28;20034;-64
2022/07/08 07:38:54;;;;;;;6.50;1.83;;;;;;;16.69;61.87;102206.13;6006424;28;20118;-63
2022/07/08 07:41:49;;;;;;;6.17;1.37;;;;;;;16.63;62.24;102213.72;6005260;28;20042;-64
2022/07/08 07:44:45;;;;;;;4.77;1.37;;;;;;;16.85;61.63;102217.03;6005249;28;20034;-64
2022/07/08 07:47:40;;;;;;;8.20;1.30;;;;;;;17.05;60.44;102213.22;6005929;28;20121;-63
2022/07/08 07:50:35;;;;;;;6.00;1.57;;;;;;;17.02;61.10;102224.25;5998754;28;20023;-64
2022/07/08 07:53:30;;;;;;;9.07;1.50;;;;;;;17.89;60.22;102216.34;6001433;28;20039;-63
2022/07/08 07:56:26;;;;;;;6.10;1.53;;;;;;;17.68;59.07;102217.56;6005568;28;20114;-63
2022/07/08 07:59:21;;;;;;;6.10;1.27;;;;;;;17.50;58.47;102222.03;6002840;28;20750;-62
2022/07/08 08:02:16;;;;;;;8.10;1.40;;;;;;;17.47;59.63;102233.09;6004297;28;20085;-65
2022/07/08 08:05:12;;;;;;;10.17;1.60;;;;;;;17.37;58.55;102236.84;6004647;28;20027;-65
2022/07/08 08:08:08;;;;;;;8.13;1.35;;;;;;;17.29;60.42;102240.28;6004868;28;20062;-64
2022/07/08 08:11:04;;;;;;;7.28;1.35;;;;;;;17.15;59.29;102232.75;6004793;28;20030;-64
2022/07/08 08:13:59;;;;;;;7.88;1.77;;;;;;;17.46;60.21;102246.66;5995655;28;20039;-63
2022/07/08 08:16:54;;;;;;;8.27;1.40;;;;;;;17.54;60.54;102236.88;6002179;28;20364;-64
2022/07/08 08:19:50;;;;;;;9.90;1.30;;;;;;;17.57;59.63;102255.34;6004293;28;20039;-64
2022/07/08 08:22:45;;;;;;;6.95;1.52;;;;;;;17.59;59.02;102234.56;6003797;28;20027;-64
2022/07/08 08:25:43;;;;;;;7.33;1.43;;;;;;;17.60;59.22;102235.41;5994629;28;20064;-65
2022/07/08 08:28:39;;;;;;;7.90;1.77;;;;;;;17.63;58.58;102233.28;5998542;28;20027;-63
2022/07/08 08:31:34;;;;;;;7.53;2.40;;;;;;;17.62;59.32;102218.16;6001367;28;20093;-64
2022/07/08 08:34:29;;;;;;;4.20;1.23;;;;;;;17.70;59.00;102220.06;6002216;28;20038;-64
2022/07/08 08:37:25;;;;;;;5.07;1.30;;;;;;;17.46;59.30;102222.50;5998008;28;20630;-64
2022/07/08 08:40:21;;;;;;;10.13;1.70;;;;;;;17.84;59.06;102233.78;6002423;28;20058;-64
2022/07/08 08:43:17;;;;;;;5.70;1.50;;;;;;;18.11;57.42;102218.53;6000912;28;20039;-64
2022/07/08 08:46:13;;;;;;;6.23;1.30;;;;;;;18.05;58.38;102229.88;6003221;28;20493;-64
2022/07/08 08:49:10;;;;;;;7.60;1.27;;;;;;;17.67;60.31;102221.22;6002023;28;20150;-63
2022/07/08 08:52:05;;;;;;;5.63;1.67;;;;;;;18.11;58.33;102215.84;6003698;28;20475;-64
2022/07/08 08:55:01;;;;;;;6.57;1.75;;;;;;;18.61;57.12;102218.66;5992064;28;20059;-64
2022/07/08 08:57:58;;;;;;;5.90;1.50;;;;;;;19.01;57.05;102214.28;6003562;28;20085;-64
2022/07/08 09:00:53;;;;;;;4.93;1.45;;;;;;;19.45;54.78;102214.03;6002361;28;20764;-63
2022/07/08 09:03:48;;;;;;;7.15;1.33;;;;;;;19.52;53.86;102223.13;6003881;28;20039;-64
2022/07/08 09:06:44;;;;;;;9.50;1.30;;;;;;;20.19;52.47;102220.03;6003548;28;20574;-64
2022/07/08 09:09:39;;;;;;;4.50;1.13;;;;;;;20.40;52.79;102215.97;6003034;28;20310;-64
2022/07/08 09:12:34;;;;;;;6.23;1.37;;;;;;;19.10;53.38;102215.16;6003287;28;20471;-64
2022/07/08 09:15:37;;;;;;;3.67;1.40;;;;;;;19.35;54.38;102216.03;5990518;28;20035;-63
2022/07/08 09:18:40;;;;;;;10.00;1.42;;;;;;;19.07;54.75;102215.47;6000117;28;20027;-64
2022/07/08 09:21:35;;;;;;;6.50;1.40;;;;;;;19.08;55.65;102219.81;6002997;28;20430;-64
2022/07/08 09:24:30;;;;;;;5.10;1.50;;;;;;;19.47;55.89;102225.47;6002178;28;20069;-63
2022/07/08 09:27:26;;;;;;;8.20;1.47;;;;;;;19.91;54.97;102207.13;6003506;28;20149;-63
2022/07/08 09:30:27;;;;;;;6.40;1.33;;;;;;;20.37;52.40;102210.94;6001875;28;20042;-62
2022/07/08 09:33:25;;;;;;;7.45;1.85;;;;;;;20.12;53.01;102215.50;6003037;28;20042;-64
2022/07/08 09:36:20;;;;;;;8.43;1.30;;;;;;;20.23;52.47;102211.59;6001930;28;20382;-63
2022/07/08 09:39:23;;;;;;;6.57;1.30;;;;;;;20.30;52.79;102200.00;6003599;28;20038;-63
2022/07/08 09:42:19;;;;;;;4.35;1.60;;;;;;;20.09;53.99;102211.31;5994265;28;20035;-64
2022/07/08 09:45:14;;;;;;;7.60;1.50;;;;;;;20.26;53.79;102216.69;6002423;28;20042;-63
2022/07/08 09:48:09;;;;;;;5.53;1.57;;;;;;;20.46;52.86;102215.28;6002627;28;20047;-63
2022/07/08 09:51:08;;;;;;;5.27;1.30;;;;;;;20.02;52.99;102209.47;6001698;28;20282;-64
2022/07/08 09:54:10;;;;;;;5.97;1.30;;;;;;;20.70;52.80;102202.56;6002523;28;20282;-64
2022/07/08 09:57:07;;;;;;;6.85;1.83;;;;;;;20.69;52.40;102202.72;6017890;28;20030;-64
2022/07/08 10:00:03;;;;;;;4.65;1.83;;;;;;;19.65;54.41;102203.81;6000284;28;20055;-64
2022/07/08 10:02:58;;;;;;;6.43;1.70;;;;;;;19.98;54.24;102213.50;6001922;28;20030;-63
2022/07/08 10:05:54;;;;;;;6.00;1.30;;;;;;;20.61;53.21;102200.06;6002119;28;20474;-65
2022/07/08 10:08:49;;;;;;;8.38;2.20;;;;;;;20.80;52.66;102199.63;5995005;28;20110;-64
2022/07/08 10:11:46;;;;;;;9.37;1.57;;;;;;;20.75;53.19;102196.63;5993875;28;20038;-64
2022/07/08 10:14:46;;;;;;;7.15;1.50;;;;;;;20.60;53.25;102203.78;5993211;28;20310;-63
2022/07/08 10:17:45;;;;;;;6.88;1.70;;;;;;;20.51;53.92;102194.88;5997800;28;20031;-64
2022/07/08 10:20:43;;;;;;;6.90;1.30;;;;;;;20.84;53.88;102200.97;5999764;28;20038;-64
2022/07/08 10:23:44;;;;;;;4.38;1.50;;;;;;;21.15;52.62;102199.13;6016818;28;20058;-65
2022/07/08 10:26:40;;;;;;;7.53;1.70;;;;;;;20.90;51.98;102196.72;6001305;28;20042;-64
2022/07/08 10:29:39;;;;;;;5.35;1.17;;;;;;;20.60;53.44;102218.09;6002041;28;20035;-65
2022/07/08 10:32:36;;;;;;;7.43;1.60;;;;;;;20.06;54.92;102217.03;5994316;28;20458;-63
2022/07/08 10:35:32;;;;;;;6.80;1.90;;;;;;;20.03;56.34;102211.97;5986717;28;20122;-64
2022/07/08 10:38:33;;;;;;;3.30;1.23;;;;;;;20.32;54.66;102210.63;5998477;28;20031;-63
2022/07/08 10:41:29;;;;;;;5.13;1.63;;;;;;;19.93;55.54;102207.78;5994849;28;20162;-64
2022/07/08 10:44:46;;;;;;;5.43;1.48;;;;;;;20.40;55.28;102213.28;5987094;28;20503;-64
2022/07/08 10:47:41;;;;;;;7.10;1.52;;;;;;;20.19;55.97;102206.56;5998282;28;20126;-64
2022/07/08 10:50:37;;;;;;;5.80;1.20;;;;;;;20.75;56.52;102194.78;5996900;28;20491;-64
2022/07/08 10:53:50;;;;;;;6.37;2.03;;;;;;;20.52;54.58;102214.59;6001351;28;20034;-63
2022/07/08 10:56:56;;;;;;;6.40;1.50;;;;;;;20.11;55.27;102214.66;6002240;28;20042;-64
2022/07/08 11:00:03;;;;;;;7.13;1.83;;;;;;;20.07;56.76;102199.03;6001502;28;20053;-64
2022/07/08 11:02:59;;;;;;;8.52;2.05;;;;;;;20.27;55.95;102188.75;5984242;28;20539;-64
2022/07/08 11:05:56;;;;;;;6.57;1.55;;;;;;;20.33;55.51;102194.25;5993038;28;20034;-63
2022/07/08 11:09:01;;;;;;;5.30;1.33;;;;;;;20.53;55.21;102200.09;5991556;28;20065;-64
2022/07/08 11:11:57;;;;;;;5.38;1.20;;;;;;;20.61;55.40;102209.00;6006938;28;20039;-65
2022/07/08 11:14:54;;;;;;;5.50;1.55;;;;;;;20.55;55.30;102190.81;5995725;28;20050;-64
2022/07/08 11:17:50;;;;;;;7.53;1.38;;;;;;;20.00;56.95;102212.31;5996065;28;20046;-64
2022/07/08 11:20:45;;;;;;;3.83;1.40;;;;;;;19.81;56.96;102218.06;5999479;28;20027;-64
2022/07/08 11:23:45;;;;;;;4.73;1.53;;;;;;;20.24;56.98;102221.38;5995768;28;20039;-65
2022/07/08 11:26:41;;;;;;;4.20;1.17;;;;;;;20.08;57.09;102206.91;5995318;28;20034;-64
2022/07/08 11:29:36;;;;;;;4.13;1.17;;;;;;;20.16;57.22;102225.75;5988762;28;20065;-64
2022/07/08 11:32:31;;;;;;;8.03;1.50;;;;;;;20.17;57.01;102208.59;5989089;28;20034;-65
2022/07/08 11:35:27;;;;;;;3.87;1.30;;;;;;;20.33;56.96;102212.31;5993341;28;20038;-64
2022/07/08 11:38:38;;;;;;;10.07;1.83;;;;;;;20.18;56.79;102207.59;5995068;28;20041;-64
2022/07/08 11:41:39;;;;;;;4.22;1.17;;;;;;;20.13;57.25;102220.75;5991755;28;20051;-63
2022/07/08 11:44:34;;;;;;;3.88;1.13;;;;;;;20.13;57.25;102201.88;5998609;28;20046;-63
2022/07/08 11:47:30;;;;;;;3.88;1.30;;;;;;;20.22;57.92;102209.94;5989983;28;20031;-64
2022/07/08 11:50:25;;;;;;;4.43;1.20;;;;;;;19.92;58.03;102212.34;6002161;28;20046;-64
2022/07/08 11:53:22;;;;;;;2.03;1.57;;;;;;;20.30;58.15;102201.88;5997450;28;20050;-64
2022/07/08 11:56:18;;;;;;;11.00;1.45;;;;;;;21.05;55.88;102206.59;6004762;28;20379;-64
2022/07/08 11:59:21;;;;;;;3.92;1.10;;;;;;;21.26;55.44;102190.63;5998089;28;20039;-63
2022/07/08 12:02:21;;;;;;;3.08;1.27;;;;;;;21.23;54.25;102204.47;5998660;28;20170;-65
2022/07/08 12:05:16;;;;;;;3.38;1.42;;;;;;;20.98;55.24;102191.28;6003656;28;20398;-64
2022/07/08 12:08:12;;;;;;;9.07;1.47;;;;;;;21.48;54.31;102199.72;5999710;28;20050;-64
2022/07/08 12:11:12;;;;;;;4.07;1.55;;;;;;;21.12;55.26;102195.94;6004500;28;20041;-62
2022/07/08 12:14:08;;;;;;;4.38;1.60;;;;;;;20.07;57.15;102202.56;6004474;28;20039;-65
2022/07/08 12:17:04;;;;;;;10.82;1.50;;;;;;;19.71;59.94;102192.34;5996174;28;20058;-64
2022/07/08 12:19:59;;;;;;;5.22;1.70;;;;;;;19.58;60.13;102200.94;5993755;28;20390;-65
2022/07/08 12:22:56;;;;;;;8.10;1.48;;;;;;;19.78;60.62;102196.03;5995127;28;20034;-64
2022/07/08 12:25:53;;;;;;;7.53;1.77;;;;;;;20.00;59.99;102193.47;5994438;28;20049;-63
2022/07/08 12:28:48;;;;;;;9.65;1.88;;;;;;;19.95;59.86;102203.91;5994580;28;20035;-64
2022/07/08 12:31:43;;;;;;;5.77;1.90;;;;;;;19.98;60.07;102200.88;5990827;28;20045;-65
2022/07/08 12:34:49;;;;;;;2.92;1.65;;;;;;;19.83;60.15;102189.13;5999050;28;20274;-64
2022/07/08 12:37:45;;;;;;;5.53;2.13;;;;;;;20.03;60.61;102195.81;5998345;28;20031;-64
2022/07/08 12:40:41;;;;;;;10.32;2.13;;;;;;;20.04;59.41;102197.53;6001194;28;20078;-64
2022/07/08 12:43:36;;;;;;;5.03;1.83;;;;;;;19.87;60.02;102190.47;5994453;28;20035;-63
2022/07/08 12:46:32;;;;;;;8.60;1.77;;;;;;;19.85;61.40;102195.19;5996057;28;20510;-64
2022/07/08 12:49:28;;;;;;;5.60;2.20;;;;;;;19.86;61.17;102193.34;5988692;28;20066;-64
2022/07/08 12:52:24;;;;;;;4.20;1.70;;;;;;;19.79;60.98;102192.31;6001237;28;20027;-64
2022/07/08 12:55:19;;;;;;;5.97;1.50;;;;;;;19.78;61.67;102186.13;6002613;28;20038;-64
2022/07/08 12:58:14;;;;;;;5.33;1.83;;;;;;;19.88;61.14;102205.63;5994739;28;20281;-65
2022/07/08 13:01:10;;;;;;;2.63;1.43;;;;;;;19.73;61.52;102191.16;5992571;28;20765;-64
2022/07/08 13:04:05;;;;;;;7.37;1.70;;;;;;;19.78;61.81;102198.75;5993810;28;20057;-64
2022/07/08 13:07:00;;;;;;;6.30;1.70;;;;;;;19.75;62.53;102196.38;5985349;28;20035;-63
2022/07/08 13:09:56;;;;;;;4.43;1.80;;;;;;;20.02;60.60;102187.94;5998598;28;20301;-64
2022/07/08 13:12:51;;;;;;;4.13;1.65;;;;;;;20.30;59.77;102193.78;5999656;28;20077;-65
2022/07/08 13:15:47;;;;;;;3.70;1.60;;;;;;;20.10;60.93;102202.22;5985423;28;20035;-65
2022/07/08 13:18:42;;;;;;;5.70;1.80;;;;;;;19.75;61.91;102213.38;5999235;28;20042;-64
2022/07/08 13:21:38;;;;;;;5.07;1.40;;;;;;;19.87;62.23;102198.53;6002264;28;20066;-63
2022/07/08 13:24:34;;;;;;;7.10;2.20;;;;;;;20.07;62.30;102196.34;6003316;28;20039;-64
2022/07/08 13:27:29;;;;;;;2.53;1.50;;;;;;;20.32;60.98;102192.59;5998795;28;20027;-64
2022/07/08 13:30:24;;;;;;;7.53;2.10;;;;;;;20.37;61.34;102189.38;6002284;28;20045;-64
2022/07/08 13:33:20;;;;;;;3.47;1.33;;;;;;;21.01;59.48;102188.25;5995251;28;20345;-64
2022/07/08 13:36:15;;;;;;;2.50;1.40;;;;;;;20.98;58.79;102192.09;6002703;28;20038;-65
2022/07/08 13:39:11;;;;;;;3.15;1.25;;;;;;;21.18;58.38;102192.53;5991972;28;20031;-65
2022/07/08 13:42:06;;;;;;;5.70;1.47;;;;;;;21.13;58.39;102190.38;6002783;28;20584;-64